Terminal Aerodrome Forecast
Issued by NWS

Home | Current Version | Previous Version | Text Only | Print | Product List | Glossary On
Versions: 1 2 3 4 5 6 7 8 9 10 11 12 13 14 15 16 17 18 19 20 21 22 23 24 25 26 27 28 29 30
000
FTUS45 KPSR 230539
TAFPHX
TAF
KPHX 230539Z 2306/2406 30016G24KT P6SM BKN100
     FM230900 30010KT P6SM -SHRA FEW040 BKN060
     FM231400 24008KT P6SM FEW060 BKN100
     FM232100 27012G20KT P6SM FEW060 FEW200
     FM240200 27010KT P6SM FEW250=

USA.gov is the U.S. government's official web portal to all federal, state and local government web resources and services.